sensor_id;sensor_type;location;lat;lon;timestamp;temperature;humidity
18753;DHT22;9505;50.882;5.350;2023-05-07T00:00:26;13.40;99.90
18753;DHT22;9505;50.882;5.350;2023-05-07T00:02:52;13.50;99.90
18753;DHT22;9505;50.882;5.350;2023-05-07T00:05:18;13.50;99.90
18753;DHT22;9505;50.882;5.350;2023-05-07T00:07:43;13.60;99.90
18753;DHT22;9505;50.882;5.350;2023-05-07T00:10:11;13.60;99.90
18753;DHT22;9505;50.882;5.350;2023-05-07T00:12:38;13.70;99.90
18753;DHT22;9505;50.882;5.350;2023-05-07T00:15:04;13.70;99.90
18753;DHT22;9505;50.882;5.350;2023-05-07T00:17:31;13.70;99.90
18753;DHT22;9505;50.882;5.350;2023-05-07T00:19:56;13.70;99.90
18753;DHT22;9505;50.882;5.350;2023-05-07T00:22:22;13.70;99.90
18753;DHT22;9505;50.882;5.350;2023-05-07T00:24:48;13.70;99.90
18753;DHT22;9505;50.882;5.350;2023-05-07T00:27:13;13.80;99.90
18753;DHT22;9505;50.882;5.350;2023-05-07T00:29:39;13.80;99.90
18753;DHT22;9505;50.882;5.350;2023-05-07T00:32:05;13.80;99.90
18753;DHT22;9505;50.882;5.350;2023-05-07T00:34:30;13.80;99.90
18753;DHT22;9505;50.882;5.350;2023-05-07T00:36:56;13.90;99.90
18753;DHT22;9505;50.882;5.350;2023-05-07T00:39:22;13.90;99.90
18753;DHT22;9505;50.882;5.350;2023-05-07T00:41:47;14.00;99.90
18753;DHT22;9505;50.882;5.350;2023-05-07T00:44:13;14.00;99.90
18753;DHT22;9505;50.882;5.350;2023-05-07T00:46:40;14.00;99.90
18753;DHT22;9505;50.882;5.350;2023-05-07T00:49:06;14.00;99.90
18753;DHT22;9505;50.882;5.350;2023-05-07T00:51:33;14.00;99.90
18753;DHT22;9505;50.882;5.350;2023-05-07T00:54:00;14.00;99.90
18753;DHT22;9505;50.882;5.350;2023-05-07T00:56:26;14.10;99.90
18753;DHT22;9505;50.882;5.350;2023-05-07T00:58:52;14.00;99.90
18753;DHT22;9505;50.882;5.350;2023-05-07T01:01:18;14.00;99.90
18753;DHT22;9505;50.882;5.350;2023-05-07T01:03:44;14.10;99.90
18753;DHT22;9505;50.882;5.350;2023-05-07T01:06:10;14.10;99.90
18753;DHT22;9505;50.882;5.350;2023-05-07T01:08:39;14.10;99.90
18753;DHT22;9505;50.882;5.350;2023-05-07T01:11:06;14.10;99.90
18753;DHT22;9505;50.882;5.350;2023-05-07T01:13:33;14.10;99.90
18753;DHT22;9505;50.882;5.350;2023-05-07T01:15:59;14.10;99.90
18753;DHT22;9505;50.882;5.350;2023-05-07T01:18:24;14.20;99.90
18753;DHT22;9505;50.882;5.350;2023-05-07T01:20:52;14.20;99.90
18753;DHT22;9505;50.882;5.350;2023-05-07T01:23:18;14.20;99.90
18753;DHT22;9505;50.882;5.350;2023-05-07T01:25:50;14.10;99.90
18753;DHT22;9505;50.882;5.350;2023-05-07T01:28:15;14.10;99.90
18753;DHT22;9505;50.882;5.350;2023-05-07T01:30:42;14.20;99.90
18753;DHT22;9505;50.882;5.350;2023-05-07T01:33:14;14.20;99.90
18753;DHT22;9505;50.882;5.350;2023-05-07T01:35:45;14.10;99.90
18753;DHT22;9505;50.882;5.350;2023-05-07T01:38:12;14.10;99.90
18753;DHT22;9505;50.882;5.350;2023-05-07T01:40:38;14.10;99.90
18753;DHT22;9505;50.882;5.350;2023-05-07T01:43:05;14.10;99.90
18753;DHT22;9505;50.882;5.350;2023-05-07T01:45:31;14.20;99.90
18753;DHT22;9505;50.882;5.350;2023-05-07T01:47:58;14.20;99.90
18753;DHT22;9505;50.882;5.350;2023-05-07T01:50:25;14.10;99.90
18753;DHT22;9505;50.882;5.350;2023-05-07T01:52:52;14.10;99.90
18753;DHT22;9505;50.882;5.350;2023-05-07T01:55:17;14.10;99.90
18753;DHT22;9505;50.882;5.350;2023-05-07T01:57:43;14.10;99.90
18753;DHT22;9505;50.882;5.350;2023-05-07T02:00:09;14.20;99.90
18753;DHT22;9505;50.882;5.350;2023-05-07T02:02:35;14.10;99.90
18753;DHT22;9505;50.882;5.350;2023-05-07T02:05:01;14.20;99.90
18753;DHT22;9505;50.882;5.350;2023-05-07T02:07:27;14.20;99.90
18753;DHT22;9505;50.882;5.350;2023-05-07T02:09:53;14.20;99.90
18753;DHT22;9505;50.882;5.350;2023-05-07T02:12:21;14.20;99.90
18753;DHT22;9505;50.882;5.350;2023-05-07T02:14:46;14.20;99.90
18753;DHT22;9505;50.882;5.350;2023-05-07T02:17:12;14.20;99.90
18753;DHT22;9505;50.882;5.350;2023-05-07T02:19:38;14.30;99.90
18753;DHT22;9505;50.882;5.350;2023-05-07T02:22:03;14.20;99.90
18753;DHT22;9505;50.882;5.350;2023-05-07T02:24:29;14.20;99.90
18753;DHT22;9505;50.882;5.350;2023-05-07T02:26:55;14.10;99.90
18753;DHT22;9505;50.882;5.350;2023-05-07T02:29:21;14.10;99.90
18753;DHT22;9505;50.882;5.350;2023-05-07T02:31:46;14.10;99.90
18753;DHT22;9505;50.882;5.350;2023-05-07T02:34:16;14.20;99.90
18753;DHT22;9505;50.882;5.350;2023-05-07T02:36:42;14.20;99.90
18753;DHT22;9505;50.882;5.350;2023-05-07T02:39:08;14.20;99.90
18753;DHT22;9505;50.882;5.350;2023-05-07T02:41:33;14.30;99.90
18753;DHT22;9505;50.882;5.350;2023-05-07T02:43:59;14.30;99.90
18753;DHT22;9505;50.882;5.350;2023-05-07T02:46:25;14.30;99.90
18753;DHT22;9505;50.882;5.350;2023-05-07T02:48:51;14.30;99.90
18753;DHT22;9505;50.882;5.350;2023-05-07T02:51:21;14.30;99.90
18753;DHT22;9505;50.882;5.350;2023-05-07T02:53:47;14.30;99.90
18753;DHT22;9505;50.882;5.350;2023-05-07T02:56:12;14.30;99.90
18753;DHT22;9505;50.882;5.350;2023-05-07T02:58:38;14.30;99.90
18753;DHT22;9505;50.882;5.350;2023-05-07T03:01:10;14.30;99.90
18753;DHT22;9505;50.882;5.350;2023-05-07T03:03:35;14.20;99.90
18753;DHT22;9505;50.882;5.350;2023-05-07T03:06:02;14.20;99.90
18753;DHT22;9505;50.882;5.350;2023-05-07T03:08:27;14.10;99.90
18753;DHT22;9505;50.882;5.350;2023-05-07T03:10:53;14.00;99.90
18753;DHT22;9505;50.882;5.350;2023-05-07T03:13:19;14.00;99.90
18753;DHT22;9505;50.882;5.350;2023-05-07T03:15:44;14.00;99.90
18753;DHT22;9505;50.882;5.350;2023-05-07T03:18:10;14.00;99.90
18753;DHT22;9505;50.882;5.350;2023-05-07T03:20:36;14.00;99.90
18753;DHT22;9505;50.882;5.350;2023-05-07T03:23:02;14.00;99.90
18753;DHT22;9505;50.882;5.350;2023-05-07T03:25:28;14.00;99.90
18753;DHT22;9505;50.882;5.350;2023-05-07T03:27:55;14.00;99.90
18753;DHT22;9505;50.882;5.350;2023-05-07T03:30:22;14.00;99.90
18753;DHT22;9505;50.882;5.350;2023-05-07T03:32:47;14.00;99.90
18753;DHT22;9505;50.882;5.350;2023-05-07T03:35:13;14.00;99.90
18753;DHT22;9505;50.882;5.350;2023-05-07T03:37:40;14.10;99.90
18753;DHT22;9505;50.882;5.350;2023-05-07T03:40:06;14.10;99.90
18753;DHT22;9505;50.882;5.350;2023-05-07T03:42:33;14.20;99.90
18753;DHT22;9505;50.882;5.350;2023-05-07T03:44:59;14.20;99.90
18753;DHT22;9505;50.882;5.350;2023-05-07T03:47:24;14.20;99.90
18753;DHT22;9505;50.882;5.350;2023-05-07T03:49:50;14.20;99.90
18753;DHT22;9505;50.882;5.350;2023-05-07T03:52:18;14.20;99.90
18753;DHT22;9505;50.882;5.350;2023-05-07T03:54:48;14.20;99.90
18753;DHT22;9505;50.882;5.350;2023-05-07T03:57:13;14.20;99.90
18753;DHT22;9505;50.882;5.350;2023-05-07T03:59:39;14.20;99.90
18753;DHT22;9505;50.882;5.350;2023-05-07T04:02:05;14.20;99.90
18753;DHT22;9505;50.882;5.350;2023-05-07T04:04:30;14.10;99.90
18753;DHT22;9505;50.882;5.350;2023-05-07T04:06:58;14.10;99.90
18753;DHT22;9505;50.882;5.350;2023-05-07T04:09:24;14.10;99.90
18753;DHT22;9505;50.882;5.350;2023-05-07T04:11:50;14.10;99.90
18753;DHT22;9505;50.882;5.350;2023-05-07T04:14:16;14.20;99.90
18753;DHT22;9505;50.882;5.350;2023-05-07T04:16:42;14.20;99.90
18753;DHT22;9505;50.882;5.350;2023-05-07T04:19:07;14.30;99.90
18753;DHT22;9505;50.882;5.350;2023-05-07T04:21:33;14.40;99.90
18753;DHT22;9505;50.882;5.350;2023-05-07T04:23:58;14.40;99.90
18753;DHT22;9505;50.882;5.350;2023-05-07T04:26:24;14.50;99.90
18753;DHT22;9505;50.882;5.350;2023-05-07T04:28:50;14.40;99.90
18753;DHT22;9505;50.882;5.350;2023-05-07T04:31:16;14.40;99.90
18753;DHT22;9505;50.882;5.350;2023-05-07T04:33:41;14.50;99.90
18753;DHT22;9505;50.882;5.350;2023-05-07T04:36:07;14.50;99.90
18753;DHT22;9505;50.882;5.350;2023-05-07T04:38:33;14.50;99.90
18753;DHT22;9505;50.882;5.350;2023-05-07T04:41:06;14.50;99.90
18753;DHT22;9505;50.882;5.350;2023-05-07T04:43:32;14.50;99.90
18753;DHT22;9505;50.882;5.350;2023-05-07T04:45:57;14.60;99.90
18753;DHT22;9505;50.882;5.350;2023-05-07T04:48:23;14.60;99.90
18753;DHT22;9505;50.882;5.350;2023-05-07T04:50:50;14.60;99.90
18753;DHT22;9505;50.882;5.350;2023-05-07T04:53:16;14.70;99.90
18753;DHT22;9505;50.882;5.350;2023-05-07T04:55:43;14.70;99.90
18753;DHT22;9505;50.882;5.350;2023-05-07T04:58:09;14.70;99.90
18753;DHT22;9505;50.882;5.350;2023-05-07T05:00:34;14.70;99.90
18753;DHT22;9505;50.882;5.350;2023-05-07T05:03:00;14.70;99.90
18753;DHT22;9505;50.882;5.350;2023-05-07T05:05:26;14.80;99.90
18753;DHT22;9505;50.882;5.350;2023-05-07T05:07:51;14.90;99.90
18753;DHT22;9505;50.882;5.350;2023-05-07T05:10:17;14.90;99.90
18753;DHT22;9505;50.882;5.350;2023-05-07T05:12:43;14.90;99.90
18753;DHT22;9505;50.882;5.350;2023-05-07T05:15:12;15.00;99.90
18753;DHT22;9505;50.882;5.350;2023-05-07T05:17:38;15.10;99.90
18753;DHT22;9505;50.882;5.350;2023-05-07T05:20:05;15.10;99.90
18753;DHT22;9505;50.882;5.350;2023-05-07T05:22:32;15.20;99.90
18753;DHT22;9505;50.882;5.350;2023-05-07T05:24:57;15.20;99.90
18753;DHT22;9505;50.882;5.350;2023-05-07T05:27:23;15.30;99.90
18753;DHT22;9505;50.882;5.350;2023-05-07T05:29:49;15.40;99.90
18753;DHT22;9505;50.882;5.350;2023-05-07T05:32:14;15.60;99.90
18753;DHT22;9505;50.882;5.350;2023-05-07T05:34:40;15.70;99.90
18753;DHT22;9505;50.882;5.350;2023-05-07T05:37:06;15.90;99.90
18753;DHT22;9505;50.882;5.350;2023-05-07T05:39:31;16.00;99.90
18753;DHT22;9505;50.882;5.350;2023-05-07T05:41:57;16.10;99.90
18753;DHT22;9505;50.882;5.350;2023-05-07T05:44:23;16.20;99.90
18753;DHT22;9505;50.882;5.350;2023-05-07T05:46:48;16.30;99.90
18753;DHT22;9505;50.882;5.350;2023-05-07T05:49:15;16.50;99.90
18753;DHT22;9505;50.882;5.350;2023-05-07T05:51:41;16.70;99.90
18753;DHT22;9505;50.882;5.350;2023-05-07T05:54:06;16.90;99.90
18753;DHT22;9505;50.882;5.350;2023-05-07T05:56:32;17.10;99.90
18753;DHT22;9505;50.882;5.350;2023-05-07T05:58:58;17.00;99.90
18753;DHT22;9505;50.882;5.350;2023-05-07T06:01:24;16.90;99.90
18753;DHT22;9505;50.882;5.350;2023-05-07T06:03:50;16.90;99.90
18753;DHT22;9505;50.882;5.350;2023-05-07T06:06:15;17.00;99.90
18753;DHT22;9505;50.882;5.350;2023-05-07T06:08:41;17.20;99.90
18753;DHT22;9505;50.882;5.350;2023-05-07T06:11:07;17.30;99.90
18753;DHT22;9505;50.882;5.350;2023-05-07T06:13:32;17.30;99.90
18753;DHT22;9505;50.882;5.350;2023-05-07T06:15:58;17.30;99.90
18753;DHT22;9505;50.882;5.350;2023-05-07T06:18:24;17.30;99.90
18753;DHT22;9505;50.882;5.350;2023-05-07T06:20:51;17.50;99.90
18753;DHT22;9505;50.882;5.350;2023-05-07T06:23:17;17.80;99.90
18753;DHT22;9505;50.882;5.350;2023-05-07T06:25:45;17.90;99.90
18753;DHT22;9505;50.882;5.350;2023-05-07T06:28:11;18.30;99.90
18753;DHT22;9505;50.882;5.350;2023-05-07T06:30:36;19.00;99.90
18753;DHT22;9505;50.882;5.350;2023-05-07T06:33:02;20.40;99.90
18753;DHT22;9505;50.882;5.350;2023-05-07T06:35:28;21.40;99.90
18753;DHT22;9505;50.882;5.350;2023-05-07T06:37:53;21.60;99.90
18753;DHT22;9505;50.882;5.350;2023-05-07T06:40:19;21.90;99.90
18753;DHT22;9505;50.882;5.350;2023-05-07T06:42:44;22.10;99.90
18753;DHT22;9505;50.882;5.350;2023-05-07T06:45:10;21.70;99.90
18753;DHT22;9505;50.882;5.350;2023-05-07T06:47:36;20.90;99.90
18753;DHT22;9505;50.882;5.350;2023-05-07T06:50:02;20.20;99.90
18753;DHT22;9505;50.882;5.350;2023-05-07T06:52:27;19.70;99.90
18753;DHT22;9505;50.882;5.350;2023-05-07T06:54:53;19.50;99.90
18753;DHT22;9505;50.882;5.350;2023-05-07T06:57:19;19.40;99.90
18753;DHT22;9505;50.882;5.350;2023-05-07T06:59:44;19.30;99.90
18753;DHT22;9505;50.882;5.350;2023-05-07T07:02:10;19.20;99.90
18753;DHT22;9505;50.882;5.350;2023-05-07T07:04:35;19.10;99.90
18753;DHT22;9505;50.882;5.350;2023-05-07T07:07:01;19.20;99.90
18753;DHT22;9505;50.882;5.350;2023-05-07T07:09:27;19.10;99.90
18753;DHT22;9505;50.882;5.350;2023-05-07T07:11:52;19.20;99.90
18753;DHT22;9505;50.882;5.350;2023-05-07T07:14:18;19.50;99.90
18753;DHT22;9505;50.882;5.350;2023-05-07T07:16:43;19.70;99.90
18753;DHT22;9505;50.882;5.350;2023-05-07T07:19:09;19.80;99.90
18753;DHT22;9505;50.882;5.350;2023-05-07T07:21:35;19.80;99.90
18753;DHT22;9505;50.882;5.350;2023-05-07T07:24:00;20.00;99.90
18753;DHT22;9505;50.882;5.350;2023-05-07T07:26:26;20.10;99.90
18753;DHT22;9505;50.882;5.350;2023-05-07T07:28:52;20.20;99.90
18753;DHT22;9505;50.882;5.350;2023-05-07T07:31:17;20.20;99.90
18753;DHT22;9505;50.882;5.350;2023-05-07T07:33:43;20.30;99.90
18753;DHT22;9505;50.882;5.350;2023-05-07T07:36:09;20.70;99.90
18753;DHT22;9505;50.882;5.350;2023-05-07T07:38:34;21.20;99.90
18753;DHT22;9505;50.882;5.350;2023-05-07T07:41:01;21.50;99.90
18753;DHT22;9505;50.882;5.350;2023-05-07T07:43:27;21.70;99.90
18753;DHT22;9505;50.882;5.350;2023-05-07T07:45:53;22.00;99.90
18753;DHT22;9505;50.882;5.350;2023-05-07T07:48:18;22.10;99.90
18753;DHT22;9505;50.882;5.350;2023-05-07T07:50:44;22.30;99.90
18753;DHT22;9505;50.882;5.350;2023-05-07T07:53:10;22.50;99.90
18753;DHT22;9505;50.882;5.350;2023-05-07T07:55:39;22.40;99.90
18753;DHT22;9505;50.882;5.350;2023-05-07T07:58:05;22.60;99.90
18753;DHT22;9505;50.882;5.350;2023-05-07T08:00:31;22.70;99.90
18753;DHT22;9505;50.882;5.350;2023-05-07T08:02:56;22.80;99.90
18753;DHT22;9505;50.882;5.350;2023-05-07T08:05:22;22.90;99.90
18753;DHT22;9505;50.882;5.350;2023-05-07T08:07:48;23.10;99.90
18753;DHT22;9505;50.882;5.350;2023-05-07T08:10:17;22.90;99.90
18753;DHT22;9505;50.882;5.350;2023-05-07T08:12:47;22.80;99.90
18753;DHT22;9505;50.882;5.350;2023-05-07T08:15:14;22.70;99.90
18753;DHT22;9505;50.882;5.350;2023-05-07T08:17:40;22.50;99.90
18753;DHT22;9505;50.882;5.350;2023-05-07T08:20:06;22.00;99.90
18753;DHT22;9505;50.882;5.350;2023-05-07T08:22:32;21.80;99.90
18753;DHT22;9505;50.882;5.350;2023-05-07T08:24:57;22.00;99.90
18753;DHT22;9505;50.882;5.350;2023-05-07T08:27:23;22.40;99.90
18753;DHT22;9505;50.882;5.350;2023-05-07T08:29:49;22.80;99.90
18753;DHT22;9505;50.882;5.350;2023-05-07T08:32:15;23.10;99.90
18753;DHT22;9505;50.882;5.350;2023-05-07T08:34:40;22.80;99.90
18753;DHT22;9505;50.882;5.350;2023-05-07T08:37:06;22.80;99.90
18753;DHT22;9505;50.882;5.350;2023-05-07T08:39:32;22.50;99.90
18753;DHT22;9505;50.882;5.350;2023-05-07T08:42:00;22.70;99.90
18753;DHT22;9505;50.882;5.350;2023-05-07T08:44:28;23.10;99.90
18753;DHT22;9505;50.882;5.350;2023-05-07T08:46:56;23.10;99.90
18753;DHT22;9505;50.882;5.350;2023-05-07T08:49:23;23.30;99.90
18753;DHT22;9505;50.882;5.350;2023-05-07T08:51:49;23.40;99.90
18753;DHT22;9505;50.882;5.350;2023-05-07T08:54:18;23.00;99.90
18753;DHT22;9505;50.882;5.350;2023-05-07T08:56:46;22.70;99.90
18753;DHT22;9505;50.882;5.350;2023-05-07T08:59:11;22.70;99.90
18753;DHT22;9505;50.882;5.350;2023-05-07T09:01:37;23.30;99.90
18753;DHT22;9505;50.882;5.350;2023-05-07T09:04:04;23.80;99.90
18753;DHT22;9505;50.882;5.350;2023-05-07T09:06:31;23.60;99.90
18753;DHT22;9505;50.882;5.350;2023-05-07T09:08:56;23.60;99.90
18753;DHT22;9505;50.882;5.350;2023-05-07T09:11:24;23.10;99.90
18753;DHT22;9505;50.882;5.350;2023-05-07T09:13:54;22.60;99.90
18753;DHT22;9505;50.882;5.350;2023-05-07T09:16:21;22.60;99.90
18753;DHT22;9505;50.882;5.350;2023-05-07T09:18:51;22.80;99.90
18753;DHT22;9505;50.882;5.350;2023-05-07T09:21:18;22.80;99.90
18753;DHT22;9505;50.882;5.350;2023-05-07T09:23:43;23.30;99.90
18753;DHT22;9505;50.882;5.350;2023-05-07T09:26:09;23.10;99.90
18753;DHT22;9505;50.882;5.350;2023-05-07T09:28:41;22.60;99.90
18753;DHT22;9505;50.882;5.350;2023-05-07T09:31:08;22.40;99.90
18753;DHT22;9505;50.882;5.350;2023-05-07T09:33:34;22.70;99.90
18753;DHT22;9505;50.882;5.350;2023-05-07T09:36:07;22.80;99.90
18753;DHT22;9505;50.882;5.350;2023-05-07T09:38:33;22.30;99.90
18753;DHT22;9505;50.882;5.350;2023-05-07T09:41:11;22.00;99.90
18753;DHT22;9505;50.882;5.350;2023-05-07T09:43:38;22.10;99.90
18753;DHT22;9505;50.882;5.350;2023-05-07T09:46:15;21.80;99.90
18753;DHT22;9505;50.882;5.350;2023-05-07T09:48:43;21.50;99.90
18753;DHT22;9505;50.882;5.350;2023-05-07T09:51:18;21.60;99.90
18753;DHT22;9505;50.882;5.350;2023-05-07T09:53:48;21.50;99.90
18753;DHT22;9505;50.882;5.350;2023-05-07T09:56:15;21.50;99.90
18753;DHT22;9505;50.882;5.350;2023-05-07T09:58:41;21.30;99.90
18753;DHT22;9505;50.882;5.350;2023-05-07T10:01:07;21.20;99.90
18753;DHT22;9505;50.882;5.350;2023-05-07T10:03:35;21.00;99.90
18753;DHT22;9505;50.882;5.350;2023-05-07T10:06:01;21.00;99.90
18753;DHT22;9505;50.882;5.350;2023-05-07T10:08:29;21.00;99.90
18753;DHT22;9505;50.882;5.350;2023-05-07T10:10:55;20.70;99.90
18753;DHT22;9505;50.882;5.350;2023-05-07T10:13:21;20.60;99.90
18753;DHT22;9505;50.882;5.350;2023-05-07T10:15:47;20.80;99.90
18753;DHT22;9505;50.882;5.350;2023-05-07T10:18:14;20.60;99.90
18753;DHT22;9505;50.882;5.350;2023-05-07T10:20:42;20.30;99.90
18753;DHT22;9505;50.882;5.350;2023-05-07T10:23:10;20.20;99.90
18753;DHT22;9505;50.882;5.350;2023-05-07T10:25:38;20.20;99.90
18753;DHT22;9505;50.882;5.350;2023-05-07T10:28:08;20.30;99.90
18753;DHT22;9505;50.882;5.350;2023-05-07T10:31:14;19.90;99.90
18753;DHT22;9505;50.882;5.350;2023-05-07T10:33:44;19.80;99.90
18753;DHT22;9505;50.882;5.350;2023-05-07T10:36:11;19.70;99.90
18753;DHT22;9505;50.882;5.350;2023-05-07T10:38:36;19.80;99.90
18753;DHT22;9505;50.882;5.350;2023-05-07T10:41:02;19.80;99.90
18753;DHT22;9505;50.882;5.350;2023-05-07T10:43:57;19.60;99.90
18753;DHT22;9505;50.882;5.350;2023-05-07T10:46:26;19.80;99.90
18753;DHT22;9505;50.882;5.350;2023-05-07T10:49:18;19.80;99.90
18753;DHT22;9505;50.882;5.350;2023-05-07T10:51:44;19.80;99.90
18753;DHT22;9505;50.882;5.350;2023-05-07T10:56:41;19.30;99.90
18753;DHT22;9505;50.882;5.350;2023-05-07T11:01:53;19.10;99.90
18753;DHT22;9505;50.882;5.350;2023-05-07T11:04:19;19.30;99.90
18753;DHT22;9505;50.882;5.350;2023-05-07T11:15:11;19.00;99.90
18753;DHT22;9505;50.882;5.350;2023-05-07T11:17:57;18.90;99.90
18753;DHT22;9505;50.882;5.350;2023-05-07T11:20:50;18.70;99.90
18753;DHT22;9505;50.882;5.350;2023-05-07T11:26:10;19.10;99.90
18753;DHT22;9505;50.882;5.350;2023-05-07T11:28:38;19.30;99.90
18753;DHT22;9505;50.882;5.350;2023-05-07T11:31:04;19.10;99.90
18753;DHT22;9505;50.882;5.350;2023-05-07T11:33:31;19.10;99.90
18753;DHT22;9505;50.882;5.350;2023-05-07T11:35:57;19.10;99.90
18753;DHT22;9505;50.882;5.350;2023-05-07T11:38:23;18.70;99.90
18753;DHT22;9505;50.882;5.350;2023-05-07T11:40:56;18.60;99.90
18753;DHT22;9505;50.882;5.350;2023-05-07T11:43:22;18.70;99.90
18753;DHT22;9505;50.882;5.350;2023-05-07T11:45:48;18.90;99.90
18753;DHT22;9505;50.882;5.350;2023-05-07T11:48:15;18.50;99.90
18753;DHT22;9505;50.882;5.350;2023-05-07T11:50:59;18.40;99.90
18753;DHT22;9505;50.882;5.350;2023-05-07T11:53:26;18.50;99.90
18753;DHT22;9505;50.882;5.350;2023-05-07T11:56:05;18.90;99.90
18753;DHT22;9505;50.882;5.350;2023-05-07T11:58:31;18.70;99.90
18753;DHT22;9505;50.882;5.350;2023-05-07T12:00:57;18.60;99.90
18753;DHT22;9505;50.882;5.350;2023-05-07T12:03:22;18.40;99.90
18753;DHT22;9505;50.882;5.350;2023-05-07T12:05:48;18.60;99.90
18753;DHT22;9505;50.882;5.350;2023-05-07T12:08:15;18.80;99.90
18753;DHT22;9505;50.882;5.350;2023-05-07T12:10:44;18.80;99.90
18753;DHT22;9505;50.882;5.350;2023-05-07T12:13:25;19.00;99.90
18753;DHT22;9505;50.882;5.350;2023-05-07T12:15:57;19.00;99.90
18753;DHT22;9505;50.882;5.350;2023-05-07T12:18:23;19.00;99.90
18753;DHT22;9505;50.882;5.350;2023-05-07T12:20:49;19.00;99.90
18753;DHT22;9505;50.882;5.350;2023-05-07T12:23:16;19.10;99.90
18753;DHT22;9505;50.882;5.350;2023-05-07T12:25:43;19.10;99.90
18753;DHT22;9505;50.882;5.350;2023-05-07T12:28:16;19.00;99.90
18753;DHT22;9505;50.882;5.350;2023-05-07T12:30:46;19.00;99.90
18753;DHT22;9505;50.882;5.350;2023-05-07T12:33:16;19.10;99.90
18753;DHT22;9505;50.882;5.350;2023-05-07T12:35:43;19.20;99.90
18753;DHT22;9505;50.882;5.350;2023-05-07T12:38:11;19.10;99.90
18753;DHT22;9505;50.882;5.350;2023-05-07T12:40:47;19.10;99.90
18753;DHT22;9505;50.882;5.350;2023-05-07T12:43:20;19.30;99.90
18753;DHT22;9505;50.882;5.350;2023-05-07T12:45:49;19.40;99.90
18753;DHT22;9505;50.882;5.350;2023-05-07T12:48:14;19.60;99.90
18753;DHT22;9505;50.882;5.350;2023-05-07T12:50:41;19.60;99.90
18753;DHT22;9505;50.882;5.350;2023-05-07T12:53:07;19.30;99.90
18753;DHT22;9505;50.882;5.350;2023-05-07T12:55:50;19.30;99.90
18753;DHT22;9505;50.882;5.350;2023-05-07T13:00:42;18.90;99.90
18753;DHT22;9505;50.882;5.350;2023-05-07T13:03:09;19.00;99.90
18753;DHT22;9505;50.882;5.350;2023-05-07T13:05:34;19.20;99.90
18753;DHT22;9505;50.882;5.350;2023-05-07T13:08:00;19.20;99.90
18753;DHT22;9505;50.882;5.350;2023-05-07T13:10:27;19.50;99.90
18753;DHT22;9505;50.882;5.350;2023-05-07T13:12:52;19.70;99.90
18753;DHT22;9505;50.882;5.350;2023-05-07T13:15:19;19.50;99.90
18753;DHT22;9505;50.882;5.350;2023-05-07T13:17:44;19.60;99.90
18753;DHT22;9505;50.882;5.350;2023-05-07T13:20:10;19.40;99.90
18753;DHT22;9505;50.882;5.350;2023-05-07T13:22:38;19.40;99.90
18753;DHT22;9505;50.882;5.350;2023-05-07T13:25:04;19.50;99.90
18753;DHT22;9505;50.882;5.350;2023-05-07T13:27:30;19.70;99.90
18753;DHT22;9505;50.882;5.350;2023-05-07T13:29:56;19.80;99.90
18753;DHT22;9505;50.882;5.350;2023-05-07T13:32:22;20.00;99.90
18753;DHT22;9505;50.882;5.350;2023-05-07T13:34:48;20.00;99.90
18753;DHT22;9505;50.882;5.350;2023-05-07T13:37:13;20.30;99.90
18753;DHT22;9505;50.882;5.350;2023-05-07T13:39:39;20.30;99.90
18753;DHT22;9505;50.882;5.350;2023-05-07T13:42:06;20.40;99.90
18753;DHT22;9505;50.882;5.350;2023-05-07T13:44:31;20.40;99.90
18753;DHT22;9505;50.882;5.350;2023-05-07T13:46:57;20.50;99.90
18753;DHT22;9505;50.882;5.350;2023-05-07T13:49:23;20.60;99.90
18753;DHT22;9505;50.882;5.350;2023-05-07T13:51:49;20.70;99.90
18753;DHT22;9505;50.882;5.350;2023-05-07T13:54:14;20.70;99.90
18753;DHT22;9505;50.882;5.350;2023-05-07T13:56:41;20.80;99.90
18753;DHT22;9505;50.882;5.350;2023-05-07T13:59:07;20.90;99.90
18753;DHT22;9505;50.882;5.350;2023-05-07T14:01:32;20.50;99.90
18753;DHT22;9505;50.882;5.350;2023-05-07T14:03:58;20.60;99.90
18753;DHT22;9505;50.882;5.350;2023-05-07T14:06:25;20.80;99.90
18753;DHT22;9505;50.882;5.350;2023-05-07T14:08:50;20.90;99.90
18753;DHT22;9505;50.882;5.350;2023-05-07T14:11:16;20.90;99.90
18753;DHT22;9505;50.882;5.350;2023-05-07T14:13:42;20.50;99.90
18753;DHT22;9505;50.882;5.350;2023-05-07T14:16:07;20.40;99.90
18753;DHT22;9505;50.882;5.350;2023-05-07T14:18:33;20.60;99.90
18753;DHT22;9505;50.882;5.350;2023-05-07T14:21:00;21.00;99.90
18753;DHT22;9505;50.882;5.350;2023-05-07T14:23:26;20.90;99.90
18753;DHT22;9505;50.882;5.350;2023-05-07T14:25:52;21.00;99.90
18753;DHT22;9505;50.882;5.350;2023-05-07T14:28:18;21.10;99.90
18753;DHT22;9505;50.882;5.350;2023-05-07T14:30:44;20.90;99.90
18753;DHT22;9505;50.882;5.350;2023-05-07T14:33:10;20.80;99.90
18753;DHT22;9505;50.882;5.350;2023-05-07T14:35:35;20.90;99.90
18753;DHT22;9505;50.882;5.350;2023-05-07T14:38:01;21.10;99.90
18753;DHT22;9505;50.882;5.350;2023-05-07T14:40:27;21.40;99.90
18753;DHT22;9505;50.882;5.350;2023-05-07T14:42:52;21.10;99.90
18753;DHT22;9505;50.882;5.350;2023-05-07T14:45:18;20.70;99.90
18753;DHT22;9505;50.882;5.350;2023-05-07T14:47:44;20.60;99.90
18753;DHT22;9505;50.882;5.350;2023-05-07T14:50:09;20.50;99.90
18753;DHT22;9505;50.882;5.350;2023-05-07T14:52:35;20.40;99.90
18753;DHT22;9505;50.882;5.350;2023-05-07T14:55:01;20.80;99.90
18753;DHT22;9505;50.882;5.350;2023-05-07T14:57:26;20.70;99.90
18753;DHT22;9505;50.882;5.350;2023-05-07T14:59:52;20.80;99.90
18753;DHT22;9505;50.882;5.350;2023-05-07T15:02:18;21.00;99.90
18753;DHT22;9505;50.882;5.350;2023-05-07T15:04:44;20.80;99.90
18753;DHT22;9505;50.882;5.350;2023-05-07T15:07:14;20.50;99.90
18753;DHT22;9505;50.882;5.350;2023-05-07T15:09:43;20.50;99.90
18753;DHT22;9505;50.882;5.350;2023-05-07T15:12:09;20.40;99.90
18753;DHT22;9505;50.882;5.350;2023-05-07T15:14:35;20.40;99.90
18753;DHT22;9505;50.882;5.350;2023-05-07T15:17:01;20.60;99.90
18753;DHT22;9505;50.882;5.350;2023-05-07T15:19:26;20.70;99.90
18753;DHT22;9505;50.882;5.350;2023-05-07T15:21:58;20.80;99.90
18753;DHT22;9505;50.882;5.350;2023-05-07T15:24:25;20.80;99.90
18753;DHT22;9505;50.882;5.350;2023-05-07T15:26:53;20.80;99.90
18753;DHT22;9505;50.882;5.350;2023-05-07T15:29:19;20.70;99.90
18753;DHT22;9505;50.882;5.350;2023-05-07T15:31:46;20.80;99.90
18753;DHT22;9505;50.882;5.350;2023-05-07T15:34:12;20.90;99.90
18753;DHT22;9505;50.882;5.350;2023-05-07T15:36:37;21.00;99.90
18753;DHT22;9505;50.882;5.350;2023-05-07T15:39:03;20.90;99.90
18753;DHT22;9505;50.882;5.350;2023-05-07T15:41:29;21.00;99.90
18753;DHT22;9505;50.882;5.350;2023-05-07T15:43:55;21.00;99.90
18753;DHT22;9505;50.882;5.350;2023-05-07T15:46:23;21.10;99.90
18753;DHT22;9505;50.882;5.350;2023-05-07T15:48:50;21.00;99.90
18753;DHT22;9505;50.882;5.350;2023-05-07T15:51:16;20.90;99.90
18753;DHT22;9505;50.882;5.350;2023-05-07T15:53:42;20.90;99.90
18753;DHT22;9505;50.882;5.350;2023-05-07T15:56:08;20.80;99.90
18753;DHT22;9505;50.882;5.350;2023-05-07T15:58:35;21.00;99.90
18753;DHT22;9505;50.882;5.350;2023-05-07T16:01:01;21.20;99.90